Wetterdaten: Woche 29.09.08 - 05.10.08 (KW40)
Datum Zeit Temperatur Luftfeuchte Luftdruck Niederschlag Wind Richtung Sonnenschein Solar Taupunkt Windchill Windben
29.09.2008 00:00 6.0 C 97 % 1023.7 hPa 0.0 l/m 2.2 km/h (1 Bft) O 0.00 h 0 W/m 5.6 C 6.0 C 3.3 km/h (1 Bft)
29.09.2008 01:00 6.2 C 99 % 1023.2 hPa 0.0 l/m 0.5 km/h (0 Bft) O-SO 0.00 h 0 W/m 6.1 C 6.2 C 1.4 km/h (1 Bft)
29.09.2008 02:00 6.7 C 100 % 1022.7 hPa 0.0 l/m 0.2 km/h (0 Bft) O-SO 0.00 h 0 W/m 6.7 C 6.7 C 0.5 km/h (0 Bft)
29.09.2008 03:00 6.9 C 100 % 1022.1 hPa 0.0 l/m 0.0 km/h (0 Bft) O-SO 0.00 h 0 W/m 6.9 C 6.9 C 0.3 km/h (0 Bft)
29.09.2008 04:00 6.8 C 100 % 1021.7 hPa 0.2 l/m 0.9 km/h (0 Bft) O-SO 0.00 h 0 W/m 6.8 C 6.8 C 1.6 km/h (1 Bft)
29.09.2008 05:00 6.7 C 100 % 1021.3 hPa 0.0 l/m 1.5 km/h (1 Bft) O-SO 0.00 h 0 W/m 6.7 C 6.7 C 3.1 km/h (1 Bft)
29.09.2008 06:00 6.4 C 100 % 1021.1 hPa 0.0 l/m 0.0 km/h (0 Bft) N 0.00 h 0 W/m 6.4 C 6.4 C 0.1 km/h (0 Bft)
29.09.2008 07:00 6.4 C 100 % 1021.3 hPa 0.0 l/m 0.0 km/h (0 Bft) O-SO 0.00 h 7 W/m 6.4 C 6.4 C 0.3 km/h (0 Bft)
29.09.2008 08:00 6.7 C 100 % 1021.2 hPa 0.0 l/m 0.2 km/h (0 Bft) O-SO 0.00 h 23 W/m 6.7 C 6.7 C 0.8 km/h (0 Bft)
29.09.2008 09:00 7.1 C 100 % 1021.3 hPa 0.0 l/m 0.2 km/h (0 Bft) O-SO 0.00 h 61 W/m 7.1 C 7.1 C 1.1 km/h (1 Bft)
29.09.2008 10:00 8.0 C 100 % 1021.2 hPa 0.0 l/m 0.5 km/h (0 Bft) SW 0.00 h 117 W/m 8.0 C 8.0 C 2.1 km/h (1 Bft)
29.09.2008 11:00 9.4 C 94 % 1020.8 hPa 0.0 l/m 1.8 km/h (1 Bft) W 0.12 h 242 W/m 8.4 C 9.4 C 4.1 km/h (1 Bft)
29.09.2008 12:00 12.1 C 83 % 1019.7 hPa 0.0 l/m 1.4 km/h (1 Bft) W 1.00 h 532 W/m 9.2 C 12.1 C 3.4 km/h (1 Bft)
29.09.2008 13:00 15.1 C 75 % 1018.4 hPa 0.0 l/m 2.4 km/h (1 Bft) W-NW 1.00 h 603 W/m 10.6 C 15.1 C 4.8 km/h (1 Bft)
29.09.2008 14:00 17.0 C 65 % 1017.3 hPa 0.0 l/m 9.1 km/h (2 Bft) W-SW 0.80 h 498 W/m 10.3 C 17.0 C 15.2 km/h (3 Bft)
29.09.2008 15:00 17.7 C 64 % 1016.7 hPa 0.0 l/m 6.8 km/h (2 Bft) W-SW 0.78 h 473 W/m 10.8 C 17.7 C 11.5 km/h (2 Bft)
29.09.2008 16:00 17.1 C 65 % 1016.3 hPa 0.0 l/m 7.0 km/h (2 Bft) W 0.33 h 267 W/m 10.6 C 17.1 C 12.0 km/h (2 Bft)
29.09.2008 17:00 16.2 C 66 % 1016.2 hPa 0.0 l/m 8.0 km/h (2 Bft) W 0.17 h 122 W/m 9.9 C 16.2 C 12.9 km/h (3 Bft)
29.09.2008 18:00 15.5 C 65 % 1016.6 hPa 0.0 l/m 9.6 km/h (2 Bft) W 0.20 h 47 W/m 9.0 C 15.5 C 15.6 km/h (3 Bft)
29.09.2008 19:00 14.3 C 68 % 1017.0 hPa 0.0 l/m 7.1 km/h (2 Bft) W 0.02 h 7 W/m 8.5 C 14.3 C 11.2 km/h (2 Bft)
29.09.2008 20:00 13.7 C 71 % 1017.4 hPa 0.0 l/m 7.8 km/h (2 Bft) W-NW 0.00 h 0 W/m 8.5 C 13.7 C 12.0 km/h (2 Bft)
29.09.2008 21:00 13.1 C 75 % 1017.5 hPa 0.0 l/m 4.0 km/h (1 Bft) W 0.00 h 0 W/m 8.7 C 13.1 C 6.1 km/h (2 Bft)
29.09.2008 22:00 12.0 C 80 % 1017.9 hPa 0.0 l/m 0.8 km/h (0 Bft) NO 0.00 h 0 W/m 8.7 C 12.0 C 2.2 km/h (1 Bft)
29.09.2008 23:00 11.3 C 84 % 1017.9 hPa 0.0 l/m 2.3 km/h (1 Bft) O 0.00 h 0 W/m 8.7 C 11.3 C 3.7 km/h (1 Bft)
30.09.2008 00:00 11.1 C 85 % 1017.5 hPa 0.0 l/m 2.0 km/h (1 Bft) O-SO 0.00 h 0 W/m 8.6 C 11.1 C 3.6 km/h (1 Bft)
30.09.2008 01:00 9.7 C 90 % 1017.1 hPa 0.0 l/m 0.6 km/h (0 Bft) O-SO 0.00 h 0 W/m 8.2 C 9.7 C 1.7 km/h (1 Bft)
30.09.2008 02:00 9.5 C 91 % 1017.0 hPa 0.0 l/m 0.9 km/h (0 Bft) O-SO 0.00 h 0 W/m 8.2 C 9.5 C 1.8 km/h (1 Bft)
30.09.2008 03:00 8.3 C 95 % 1016.6 hPa 0.0 l/m 0.4 km/h (0 Bft) O-SO 0.00 h 0 W/m 7.5 C 8.3 C 0.8 km/h (0 Bft)
30.09.2008 04:00 7.6 C 96 % 1016.4 hPa 0.0 l/m 0.0 km/h (0 Bft) N 0.00 h 0 W/m 7.0 C 7.6 C 0.1 km/h (0 Bft)
30.09.2008 05:00 6.9 C 98 % 1016.3 hPa 0.0 l/m 0.1 km/h (0 Bft) O-SO 0.00 h 0 W/m 6.5 C 6.9 C 0.4 km/h (0 Bft)
30.09.2008 06:00 6.8 C 99 % 1016.3 hPa 0.0 l/m 0.1 km/h (0 Bft) O-SO 0.00 h 0 W/m 6.6 C 6.8 C 0.5 km/h (0 Bft)
30.09.2008 07:00 6.7 C 100 % 1016.4 hPa 0.0 l/m 1.4 km/h (1 Bft) O-SO 0.00 h 15 W/m 6.7 C 6.7 C 2.6 km/h (1 Bft)
30.09.2008 08:00 7.5 C 100 % 1016.4 hPa 0.0 l/m 0.3 km/h (0 Bft) O-SO 0.00 h 57 W/m 7.5 C 7.5 C 1.0 km/h (0 Bft)
30.09.2008 09:00 9.7 C 98 % 1016.0 hPa 0.0 l/m 0.1 km/h (0 Bft) O-SO 0.75 h 207 W/m 9.3 C 9.7 C 0.5 km/h (0 Bft)
30.09.2008 10:00 13.2 C 81 % 1015.5 hPa 0.0 l/m 2.8 km/h (1 Bft) W 0.83 h 368 W/m 9.9 C 13.2 C 5.2 km/h (1 Bft)
30.09.2008 11:00 13.7 C 74 % 1015.4 hPa 0.0 l/m 6.4 km/h (2 Bft) W 0.05 h 253 W/m 9.2 C 13.7 C 10.2 km/h (2 Bft)
30.09.2008 12:00 14.1 C 71 % 1015.2 hPa 0.0 l/m 7.6 km/h (2 Bft) W 0.03 h 233 W/m 8.9 C 14.1 C 12.7 km/h (3 Bft)
30.09.2008 13:00 14.6 C 67 % 1014.8 hPa 0.0 l/m 8.3 km/h (2 Bft) W 0.03 h 250 W/m 8.5 C 14.6 C 13.6 km/h (3 Bft)
30.09.2008 14:00 14.6 C 66 % 1014.3 hPa 0.0 l/m 10.4 km/h (2 Bft) W 0.00 h 186 W/m 8.2 C 14.6 C 16.6 km/h (3 Bft)
30.09.2008 15:00 14.3 C 69 % 1014.3 hPa 0.0 l/m 10.3 km/h (2 Bft) W 0.12 h 220 W/m 8.7 C 14.3 C 16.5 km/h (3 Bft)
30.09.2008 16:00 14.1 C 72 % 1013.7 hPa 0.0 l/m 8.4 km/h (2 Bft) W 0.00 h 122 W/m 9.0 C 14.1 C 13.6 km/h (3 Bft)
30.09.2008 17:00 13.5 C 75 % 1013.2 hPa 0.0 l/m 9.7 km/h (2 Bft) W 0.00 h 77 W/m 9.2 C 13.5 C 15.3 km/h (3 Bft)
30.09.2008 18:00 12.0 C 85 % 1013.2 hPa 0.2 l/m 8.8 km/h (2 Bft) W 0.00 h 16 W/m 9.5 C 12.0 C 13.7 km/h (3 Bft)
30.09.2008 19:00 11.2 C 90 % 1013.3 hPa 0.6 l/m 6.1 km/h (2 Bft) W 0.00 h 0 W/m 9.7 C 11.2 C 9.7 km/h (2 Bft)
30.09.2008 20:00 10.9 C 94 % 1013.6 hPa 0.4 l/m 7.0 km/h (2 Bft) W 0.00 h 0 W/m 9.9 C 10.9 C 10.8 km/h (2 Bft)
30.09.2008 21:00 10.7 C 96 % 1013.3 hPa 0.2 l/m 2.5 km/h (1 Bft) W-NW 0.00 h 0 W/m 10.1 C 10.7 C 5.3 km/h (1 Bft)
30.09.2008 22:00 10.6 C 97 % 1012.9 hPa 0.4 l/m 2.2 km/h (1 Bft) W 0.00 h 0 W/m 10.2 C 10.6 C 4.4 km/h (1 Bft)
30.09.2008 23:00 10.4 C 96 % 1012.8 hPa 0.4 l/m 8.6 km/h (2 Bft) W 0.00 h 0 W/m 9.8 C 10.4 C 13.4 km/h (3 Bft)
01.10.2008 00:00 10.3 C 93 % 1012.8 hPa 0.0 l/m 7.6 km/h (2 Bft) W 0.00 h 0 W/m 9.3 C 10.3 C 11.9 km/h (2 Bft)
01.10.2008 01:00 10.4 C 89 % 1012.5 hPa 0.0 l/m 4.1 km/h (1 Bft) W 0.00 h 0 W/m 8.7 C 10.4 C 7.1 km/h (2 Bft)
01.10.2008 02:00 10.1 C 91 % 1012.2 hPa 0.4 l/m 1.5 km/h (1 Bft) S-SO 0.00 h 0 W/m 8.8 C 10.1 C 3.8 km/h (1 Bft)
01.10.2008 03:00 10.3 C 89 % 1011.6 hPa 0.0 l/m 2.7 km/h (1 Bft) S-SO 0.00 h 0 W/m 8.5 C 10.3 C 6.2 km/h (2 Bft)
01.10.2008 04:00 10.1 C 89 % 1011.3 hPa 0.0 l/m 2.2 km/h (1 Bft) W-NW 0.00 h 0 W/m 8.5 C 10.1 C 4.4 km/h (1 Bft)
01.10.2008 05:00 10.2 C 90 % 1010.9 hPa 0.2 l/m 1.3 km/h (1 Bft) W-NW 0.00 h 0 W/m 8.5 C 10.2 C 3.1 km/h (1 Bft)
01.10.2008 06:00 10.0 C 90 % 1010.8 hPa 0.2 l/m 2.1 km/h (1 Bft) S-SO 0.00 h 0 W/m 8.5 C 10.0 C 4.0 km/h (1 Bft)
01.10.2008 07:00 10.7 C 85 % 1010.4 hPa 0.0 l/m 1.0 km/h (0 Bft) S-SO 0.00 h 0 W/m 8.3 C 10.7 C 2.9 km/h (1 Bft)
01.10.2008 08:00 11.3 C 81 % 1010.8 hPa 0.0 l/m 0.6 km/h (0 Bft) S-SW 0.00 h 7 W/m 8.2 C 11.3 C 2.0 km/h (1 Bft)
01.10.2008 09:00 11.6 C 81 % 1011.3 hPa 0.0 l/m 3.6 km/h (1 Bft) W-SW 0.00 h 19 W/m 8.5 C 11.6 C 6.7 km/h (2 Bft)
01.10.2008 10:00 12.3 C 78 % 1011.6 hPa 0.0 l/m 5.0 km/h (1 Bft) W 0.00 h 61 W/m 8.6 C 12.3 C 9.2 km/h (2 Bft)
01.10.2008 11:00 12.8 C 76 % 1011.6 hPa 0.0 l/m 8.6 km/h (2 Bft) W 0.00 h 66 W/m 8.7 C 12.8 C 14.1 km/h (3 Bft)
01.10.2008 12:00 13.0 C 78 % 1011.5 hPa 0.0 l/m 4.7 km/h (1 Bft) W 0.00 h 89 W/m 9.2 C 13.0 C 8.6 km/h (2 Bft)
01.10.2008 13:00 14.0 C 71 % 1011.1 hPa 0.0 l/m 13.7 km/h (3 Bft) W 0.03 h 192 W/m 8.8 C 14.0 C 21.6 km/h (4 Bft)
01.10.2008 14:00 14.4 C 72 % 1010.1 hPa 0.0 l/m 11.4 km/h (2 Bft) W-NW 0.00 h 188 W/m 9.3 C 14.4 C 17.8 km/h (3 Bft)
01.10.2008 15:00 14.0 C 74 % 1009.9 hPa 0.0 l/m 10.3 km/h (2 Bft) W 0.00 h 78 W/m 9.3 C 14.0 C 15.8 km/h (3 Bft)
01.10.2008 16:00 14.9 C 69 % 1009.3 hPa 0.0 l/m 13.2 km/h (3 Bft) W 0.00 h 86 W/m 9.2 C 14.9 C 19.8 km/h (4 Bft)
01.10.2008 17:00 15.2 C 66 % 1009.0 hPa 0.0 l/m 13.3 km/h (3 Bft) W 0.00 h 69 W/m 8.8 C 15.2 C 21.0 km/h (4 Bft)
01.10.2008 18:00 14.9 C 64 % 1009.0 hPa 0.0 l/m 11.3 km/h (2 Bft) W 0.00 h 25 W/m 8.2 C 14.9 C 18.4 km/h (3 Bft)
01.10.2008 19:00 14.6 C 66 % 1009.3 hPa 0.0 l/m 12.3 km/h (3 Bft) W 0.00 h 5 W/m 8.4 C 14.6 C 19.9 km/h (4 Bft)
01.10.2008 20:00 14.5 C 65 % 1009.4 hPa 0.0 l/m 8.9 km/h (2 Bft) W 0.00 h 0 W/m 8.1 C 14.5 C 15.4 km/h (3 Bft)
01.10.2008 21:00 14.0 C 67 % 1009.7 hPa 0.0 l/m 5.0 km/h (1 Bft) W-SW 0.00 h 0 W/m 8.0 C 14.0 C 9.4 km/h (2 Bft)
01.10.2008 22:00 13.8 C 68 % 1009.7 hPa 0.0 l/m 4.2 km/h (1 Bft) W-SW 0.00 h 0 W/m 8.0 C 13.8 C 8.5 km/h (2 Bft)
01.10.2008 23:00 13.2 C 72 % 1009.5 hPa 0.0 l/m 2.0 km/h (1 Bft) W-SW 0.00 h 0 W/m 8.2 C 13.2 C 5.2 km/h (1 Bft)
02.10.2008 00:00 12.9 C 76 % 1009.6 hPa 0.0 l/m 7.1 km/h (2 Bft) W 0.00 h 0 W/m 8.8 C 12.9 C 11.2 km/h (2 Bft)
02.10.2008 01:00 12.5 C 82 % 1009.6 hPa 0.0 l/m 5.0 km/h (1 Bft) W 0.00 h 0 W/m 9.4 C 12.5 C 8.5 km/h (2 Bft)
02.10.2008 02:00 11.8 C 88 % 1009.4 hPa 0.6 l/m 7.6 km/h (2 Bft) W 0.00 h 0 W/m 9.9 C 11.8 C 11.9 km/h (2 Bft)
02.10.2008 03:00 11.4 C 91 % 1009.0 hPa 0.0 l/m 3.6 km/h (1 Bft) W-SW 0.00 h 0 W/m 9.9 C 11.4 C 7.0 km/h (2 Bft)
02.10.2008 04:00 11.0 C 90 % 1008.6 hPa 0.0 l/m 6.0 km/h (2 Bft) W 0.00 h 0 W/m 9.4 C 11.0 C 10.9 km/h (2 Bft)
02.10.2008 05:00 11.4 C 84 % 1008.4 hPa 0.0 l/m 5.7 km/h (1 Bft) W 0.00 h 0 W/m 8.8 C 11.4 C 9.4 km/h (2 Bft)
02.10.2008 06:00 11.4 C 81 % 1008.3 hPa 0.0 l/m 4.3 km/h (1 Bft) W 0.00 h 0 W/m 8.4 C 11.4 C 7.9 km/h (2 Bft)
02.10.2008 07:00 11.2 C 81 % 1008.1 hPa 0.0 l/m 0.8 km/h (0 Bft) SW 0.02 h 13 W/m 8.1 C 11.2 C 2.4 km/h (1 Bft)
02.10.2008 08:00 11.5 C 83 % 1008.0 hPa 0.0 l/m 2.5 km/h (1 Bft) S-SO 0.40 h 87 W/m 8.7 C 11.5 C 5.0 km/h (1 Bft)
02.10.2008 09:00 12.0 C 82 % 1008.8 hPa 0.2 l/m 12.0 km/h (2 Bft) W 0.23 h 160 W/m 9.0 C 12.0 C 18.4 km/h (3 Bft)
02.10.2008 10:00 10.8 C 85 % 1009.8 hPa 0.0 l/m 12.7 km/h (3 Bft) W 0.25 h 237 W/m 8.4 C 10.8 C 19.7 km/h (3 Bft)
02.10.2008 11:00 11.7 C 81 % 1009.7 hPa 0.0 l/m 8.2 km/h (2 Bft) W 0.03 h 190 W/m 8.4 C 11.7 C 13.3 km/h (3 Bft)
02.10.2008 12:00 12.9 C 74 % 1009.3 hPa 0.0 l/m 12.7 km/h (3 Bft) W 0.53 h 373 W/m 8.4 C 12.9 C 20.2 km/h (4 Bft)
02.10.2008 13:00 12.8 C 73 % 1008.8 hPa 0.2 l/m 15.2 km/h (3 Bft) W 0.43 h 332 W/m 8.1 C 12.8 C 23.8 km/h (4 Bft)
02.10.2008 14:00 13.2 C 69 % 1008.4 hPa 0.0 l/m 14.1 km/h (3 Bft) W 0.12 h 273 W/m 7.7 C 13.2 C 21.9 km/h (4 Bft)
02.10.2008 15:00 13.4 C 62 % 1008.1 hPa 0.0 l/m 15.8 km/h (3 Bft) W 0.15 h 236 W/m 6.3 C 13.4 C 23.9 km/h (4 Bft)
02.10.2008 16:00 13.4 C 62 % 1007.9 hPa 0.0 l/m 12.9 km/h (3 Bft) W 0.28 h 191 W/m 6.3 C 13.4 C 20.9 km/h (4 Bft)
02.10.2008 17:00 12.0 C 71 % 1008.1 hPa 0.2 l/m 11.7 km/h (2 Bft) W 0.17 h 84 W/m 6.9 C 12.0 C 18.3 km/h (3 Bft)
02.10.2008 18:00 10.1 C 87 % 1008.5 hPa 0.4 l/m 2.1 km/h (1 Bft) W 0.00 h 12 W/m 8.0 C 10.1 C 4.5 km/h (1 Bft)
02.10.2008 19:00 9.5 C 89 % 1008.3 hPa 0.0 l/m 2.2 km/h (1 Bft) S-SO 0.00 h 0 W/m 7.8 C 9.4 C 3.1 km/h (1 Bft)
02.10.2008 20:00 8.5 C 93 % 1008.7 hPa 0.0 l/m 0.6 km/h (0 Bft) SO 0.00 h 0 W/m 7.4 C 8.5 C 1.5 km/h (1 Bft)
02.10.2008 21:00 7.4 C 95 % 1009.0 hPa 0.0 l/m 1.3 km/h (1 Bft) SO 0.00 h 0 W/m 6.7 C 7.4 C 2.5 km/h (1 Bft)
02.10.2008 22:00 7.1 C 97 % 1009.0 hPa 0.0 l/m 2.4 km/h (1 Bft) O-SO 0.00 h 0 W/m 6.6 C 6.8 C 3.8 km/h (1 Bft)
02.10.2008 23:00 7.5 C 96 % 1008.9 hPa 0.2 l/m 0.7 km/h (0 Bft) O-SO 0.00 h 0 W/m 7.0 C 7.5 C 1.8 km/h (1 Bft)
03.10.2008 00:00 8.3 C 94 % 1009.3 hPa 0.2 l/m 11.1 km/h (2 Bft) W 0.00 h 0 W/m 7.4 C 6.6 C 17.6 km/h (3 Bft)
03.10.2008 01:00 7.7 C 92 % 1009.0 hPa 0.0 l/m 1.0 km/h (0 Bft) W 0.00 h 0 W/m 6.6 C 7.7 C 2.0 km/h (1 Bft)
03.10.2008 02:00 7.2 C 95 % 1009.1 hPa 0.0 l/m 2.7 km/h (1 Bft) O-SO 0.00 h 0 W/m 6.5 C 7.0 C 4.5 km/h (1 Bft)
03.10.2008 03:00 7.7 C 94 % 1008.6 hPa 0.0 l/m 1.0 km/h (0 Bft) SO 0.00 h 0 W/m 6.8 C 7.7 C 2.5 km/h (1 Bft)
03.10.2008 04:00 7.8 C 93 % 1008.3 hPa 0.0 l/m 3.8 km/h (1 Bft) W-NW 0.00 h 0 W/m 6.8 C 7.4 C 6.9 km/h (2 Bft)
03.10.2008 05:00 7.9 C 91 % 1008.4 hPa 0.0 l/m 6.3 km/h (2 Bft) W 0.00 h 0 W/m 6.5 C 7.0 C 10.6 km/h (2 Bft)
03.10.2008 06:00 7.9 C 89 % 1008.5 hPa 0.0 l/m 7.9 km/h (2 Bft) W 0.00 h 0 W/m 6.1 C 6.6 C 12.3 km/h (3 Bft)
03.10.2008 07:00 7.6 C 87 % 1008.6 hPa 0.6 l/m 8.2 km/h (2 Bft) W-NW 0.00 h 6 W/m 5.6 C 6.2 C 12.6 km/h (3 Bft)
03.10.2008 08:00 7.1 C 90 % 1009.4 hPa 0.2 l/m 6.0 km/h (2 Bft) W 0.00 h 27 W/m 5.6 C 6.2 C 9.6 km/h (2 Bft)
03.10.2008 09:00 6.9 C 93 % 1010.2 hPa 0.2 l/m 6.6 km/h (2 Bft) W 0.00 h 91 W/m 5.8 C 5.8 C 10.5 km/h (2 Bft)
03.10.2008 10:00 7.2 C 91 % 1010.9 hPa 0.0 l/m 7.9 km/h (2 Bft) W 0.00 h 163 W/m 5.9 C 5.8 C 13.6 km/h (3 Bft)
03.10.2008 11:00 7.7 C 87 % 1011.3 hPa 0.2 l/m 7.7 km/h (2 Bft) W 0.08 h 188 W/m 5.7 C 6.5 C 13.2 km/h (3 Bft)
03.10.2008 12:00 8.6 C 86 % 1010.9 hPa 0.8 l/m 7.0 km/h (2 Bft) W 0.23 h 234 W/m 6.4 C 7.6 C 11.1 km/h (2 Bft)
03.10.2008 13:00 7.8 C 92 % 1011.4 hPa 0.2 l/m 9.5 km/h (2 Bft) W 0.20 h 267 W/m 6.5 C 6.2 C 15.2 km/h (3 Bft)
03.10.2008 14:00 9.1 C 83 % 1011.2 hPa 0.0 l/m 8.7 km/h (2 Bft) W 0.30 h 302 W/m 6.3 C 7.9 C 14.3 km/h (3 Bft)
03.10.2008 15:00 9.4 C 80 % 1011.4 hPa 0.0 l/m 7.5 km/h (2 Bft) W-NW 0.07 h 172 W/m 6.1 C 8.6 C 12.2 km/h (2 Bft)
03.10.2008 16:00 9.8 C 75 % 1011.6 hPa 0.0 l/m 8.6 km/h (2 Bft) W 0.22 h 174 W/m 5.5 C 8.9 C 13.8 km/h (3 Bft)
03.10.2008 17:00 9.5 C 74 % 1011.5 hPa 0.0 l/m 3.4 km/h (1 Bft) NW 0.25 h 120 W/m 5.0 C 9.2 C 5.8 km/h (2 Bft)
03.10.2008 18:00 9.2 C 77 % 1011.8 hPa 0.0 l/m 1.1 km/h (1 Bft) S-SO 0.00 h 22 W/m 5.4 C 9.2 C 2.4 km/h (1 Bft)
03.10.2008 19:00 8.6 C 84 % 1012.3 hPa 0.0 l/m 0.2 km/h (0 Bft) S-SO 0.00 h 0 W/m 6.1 C 8.6 C 0.7 km/h (0 Bft)
03.10.2008 20:00 7.8 C 89 % 1012.6 hPa 0.2 l/m 2.0 km/h (1 Bft) O-SO 0.00 h 0 W/m 6.1 C 7.8 C 3.1 km/h (1 Bft)
03.10.2008 21:00 7.2 C 94 % 1012.9 hPa 0.0 l/m 1.4 km/h (1 Bft) O-SO 0.00 h 0 W/m 6.3 C 7.2 C 2.5 km/h (1 Bft)
03.10.2008 22:00 7.0 C 90 % 1013.5 hPa 0.0 l/m 11.3 km/h (2 Bft) W-NW 0.00 h 0 W/m 5.4 C 5.0 C 17.4 km/h (3 Bft)
03.10.2008 23:00 6.4 C 88 % 1014.3 hPa 0.4 l/m 9.0 km/h (2 Bft) W 0.00 h 0 W/m 4.6 C 4.9 C 14.5 km/h (3 Bft)
04.10.2008 00:00 6.3 C 90 % 1014.9 hPa 0.0 l/m 9.7 km/h (2 Bft) W 0.00 h 0 W/m 4.8 C 4.4 C 15.6 km/h (3 Bft)
04.10.2008 01:00 6.6 C 88 % 1015.2 hPa 0.0 l/m 6.4 km/h (2 Bft) W 0.00 h 0 W/m 4.8 C 5.5 C 10.7 km/h (2 Bft)
04.10.2008 02:00 6.7 C 86 % 1015.5 hPa 0.0 l/m 7.9 km/h (2 Bft) W 0.00 h 0 W/m 4.6 C 5.3 C 13.6 km/h (3 Bft)
04.10.2008 03:00 6.7 C 84 % 1015.7 hPa 0.0 l/m 6.3 km/h (2 Bft) W 0.00 h 0 W/m 4.1 C 5.7 C 11.0 km/h (2 Bft)
04.10.2008 04:00 6.2 C 85 % 1015.7 hPa 0.2 l/m 2.3 km/h (1 Bft) W-SW 0.00 h 0 W/m 3.9 C 6.1 C 5.5 km/h (1 Bft)
04.10.2008 05:00 5.9 C 89 % 1016.1 hPa 0.6 l/m 2.0 km/h (1 Bft) W 0.00 h 0 W/m 4.2 C 5.8 C 5.0 km/h (1 Bft)
04.10.2008 06:00 5.7 C 91 % 1016.6 hPa 0.6 l/m 1.6 km/h (1 Bft) W-SW 0.00 h 0 W/m 4.4 C 5.6 C 4.1 km/h (1 Bft)
04.10.2008 07:00 5.6 C 93 % 1017.1 hPa 0.2 l/m 1.3 km/h (1 Bft) W-SW 0.00 h 5 W/m 4.6 C 5.6 C 3.7 km/h (1 Bft)
04.10.2008 08:00 5.8 C 94 % 1017.7 hPa 0.0 l/m 4.5 km/h (1 Bft) W 0.00 h 23 W/m 4.9 C 4.9 C 8.2 km/h (2 Bft)
04.10.2008 09:00 6.3 C 94 % 1018.7 hPa 0.0 l/m 10.6 km/h (2 Bft) W 0.03 h 111 W/m 5.4 C 4.2 C 17.8 km/h (3 Bft)
04.10.2008 10:00 7.6 C 88 % 1019.5 hPa 0.0 l/m 11.6 km/h (2 Bft) W 0.37 h 269 W/m 5.8 C 5.5 C 18.9 km/h (3 Bft)
04.10.2008 11:00 8.2 C 84 % 1020.2 hPa 0.0 l/m 10.6 km/h (2 Bft) W 0.08 h 226 W/m 5.6 C 6.4 C 17.0 km/h (3 Bft)
04.10.2008 12:00 9.3 C 78 % 1020.5 hPa 0.0 l/m 8.7 km/h (2 Bft) W 0.40 h 321 W/m 5.7 C 8.2 C 14.3 km/h (3 Bft)
04.10.2008 13:00 9.8 C 75 % 1020.7 hPa 0.0 l/m 7.1 km/h (2 Bft) W 0.12 h 269 W/m 5.6 C 9.2 C 11.4 km/h (2 Bft)
04.10.2008 14:00 10.0 C 73 % 1020.5 hPa 0.0 l/m 9.3 km/h (2 Bft) W 0.13 h 214 W/m 5.4 C 9.1 C 16.1 km/h (3 Bft)
04.10.2008 15:00 7.0 C 89 % 1021.6 hPa 1.0 l/m 9.2 km/h (2 Bft) W 0.00 h 106 W/m 5.3 C 5.4 C 15.2 km/h (3 Bft)
04.10.2008 16:00 7.3 C 91 % 1021.7 hPa 0.0 l/m 4.9 km/h (1 Bft) W 0.22 h 186 W/m 5.9 C 6.7 C 8.0 km/h (2 Bft)
04.10.2008 17:00 8.3 C 86 % 1021.3 hPa 0.0 l/m 1.3 km/h (1 Bft) S-SO 0.68 h 158 W/m 6.0 C 8.3 C 3.4 km/h (1 Bft)
04.10.2008 18:00 7.9 C 87 % 1021.4 hPa 0.0 l/m 2.2 km/h (1 Bft) W 0.03 h 31 W/m 5.9 C 7.8 C 4.5 km/h (1 Bft)
04.10.2008 19:00 6.8 C 90 % 1021.8 hPa 0.0 l/m 1.5 km/h (1 Bft) S-SO 0.00 h 0 W/m 5.2 C 6.8 C 3.1 km/h (1 Bft)
04.10.2008 20:00 5.8 C 94 % 1022.2 hPa 0.0 l/m 2.8 km/h (1 Bft) SO 0.00 h 0 W/m 4.9 C 5.6 C 4.6 km/h (1 Bft)
04.10.2008 21:00 5.1 C 96 % 1022.4 hPa 0.0 l/m 2.5 km/h (1 Bft) SO 0.00 h 0 W/m 4.4 C 5.1 C 3.9 km/h (1 Bft)
04.10.2008 22:00 4.7 C 96 % 1022.3 hPa 0.0 l/m 1.9 km/h (1 Bft) O-SO 0.00 h 0 W/m 4.2 C 4.6 C 3.1 km/h (1 Bft)
04.10.2008 23:00 4.1 C 97 % 1021.9 hPa 0.0 l/m 0.2 km/h (0 Bft) O-SO 0.00 h 0 W/m 3.7 C 4.1 C 0.7 km/h (0 Bft)
05.10.2008 00:00 4.6 C 99 % 1021.3 hPa 0.0 l/m 1.0 km/h (0 Bft) O-SO 0.00 h 0 W/m 4.4 C 4.5 C 1.7 km/h (1 Bft)
05.10.2008 01:00 4.6 C 100 % 1020.8 hPa 0.0 l/m 0.8 km/h (0 Bft) O-SO 0.00 h 0 W/m 4.5 C 4.6 C 2.1 km/h (1 Bft)
05.10.2008 02:00 4.6 C 100 % 1020.8 hPa 0.0 l/m 0.5 km/h (0 Bft) O-SO 0.00 h 0 W/m 4.6 C 4.6 C 1.9 km/h (1 Bft)
05.10.2008 03:00 4.4 C 100 % 1020.7 hPa 0.0 l/m 1.8 km/h (1 Bft) S-SO 0.00 h 0 W/m 4.4 C 4.3 C 5.1 km/h (1 Bft)
05.10.2008 04:00 4.1 C 100 % 1019.9 hPa 0.0 l/m 1.6 km/h (1 Bft) S-SO 0.00 h 0 W/m 4.1 C 4.1 C 4.2 km/h (1 Bft)
05.10.2008 05:00 4.0 C 100 % 1019.5 hPa 0.0 l/m 1.1 km/h (0 Bft) S-SO 0.00 h 0 W/m 4.0 C 3.9 C 3.2 km/h (1 Bft)
05.10.2008 06:00 3.9 C 100 % 1019.1 hPa 0.0 l/m 0.7 km/h (0 Bft) S-SW 0.00 h 0 W/m 3.9 C 3.9 C 2.1 km/h (1 Bft)
05.10.2008 07:00 3.7 C 99 % 1018.9 hPa 0.0 l/m 1.6 km/h (1 Bft) W-SW 0.00 h 7 W/m 3.6 C 3.7 C 4.1 km/h (1 Bft)
05.10.2008 08:00 3.9 C 99 % 1019.0 hPa 0.0 l/m 1.5 km/h (1 Bft) W 0.28 h 83 W/m 3.8 C 3.9 C 4.1 km/h (1 Bft)
05.10.2008 09:00 5.5 C 90 % 1018.8 hPa 0.0 l/m 3.0 km/h (1 Bft) W-SW 0.80 h 232 W/m 4.0 C 5.2 C 6.2 km/h (2 Bft)
05.10.2008 10:00 7.7 C 81 % 1018.4 hPa 0.0 l/m 3.9 km/h (1 Bft) S 1.00 h 432 W/m 4.7 C 7.3 C 8.6 km/h (2 Bft)
05.10.2008 11:00 9.2 C 76 % 1017.8 hPa 0.0 l/m 4.4 km/h (1 Bft) SW 1.00 h 506 W/m 5.2 C 8.9 C 9.3 km/h (2 Bft)
05.10.2008 12:00 11.2 C 70 % 1017.1 hPa 0.0 l/m 3.8 km/h (1 Bft) W-SW 1.00 h 573 W/m 6.0 C 11.2 C 8.3 km/h (2 Bft)
05.10.2008 13:00 12.3 C 66 % 1016.1 hPa 0.0 l/m 3.8 km/h (1 Bft) S-SO 0.97 h 453 W/m 6.0 C 12.3 C 8.1 km/h (2 Bft)
05.10.2008 14:00 13.3 C 60 % 1015.2 hPa 0.0 l/m 3.6 km/h (1 Bft) S-SO 1.00 h 459 W/m 5.7 C 13.3 C 8.1 km/h (2 Bft)
05.10.2008 15:00 14.2 C 56 % 1014.4 hPa 0.0 l/m 3.6 km/h (1 Bft) S 1.00 h 402 W/m 5.5 C 14.2 C 7.8 km/h (2 Bft)
05.10.2008 16:00 14.6 C 54 % 1013.9 hPa 0.0 l/m 3.2 km/h (1 Bft) S-SO 1.00 h 303 W/m 5.3 C 14.6 C 7.5 km/h (2 Bft)
05.10.2008 17:00 13.9 C 53 % 1013.6 hPa 0.0 l/m 2.3 km/h (1 Bft) S-SW 0.47 h 127 W/m 4.3 C 13.9 C 5.7 km/h (1 Bft)
05.10.2008 18:00 12.9 C 56 % 1013.6 hPa 0.0 l/m 4.1 km/h (1 Bft) S-SO 0.15 h 31 W/m 4.4 C 12.9 C 9.9 km/h (2 Bft)
05.10.2008 19:00 12.4 C 55 % 1013.6 hPa 0.0 l/m 5.6 km/h (1 Bft) S-SO 0.00 h 6 W/m 3.7 C 12.4 C 10.8 km/h (2 Bft)
05.10.2008 20:00 12.4 C 55 % 1013.7 hPa 0.0 l/m 2.8 km/h (1 Bft) S 0.00 h 0 W/m 3.6 C 12.4 C 6.9 km/h (2 Bft)
05.10.2008 21:00 11.9 C 60 % 1013.8 hPa 0.0 l/m 1.9 km/h (1 Bft) S-SO 0.00 h 0 W/m 4.3 C 11.9 C 4.5 km/h (1 Bft)
05.10.2008 22:00 10.6 C 75 % 1014.3 hPa 0.0 l/m 1.2 km/h (1 Bft) N 0.00 h 0 W/m 6.4 C 10.6 C 2.6 km/h (1 Bft)
05.10.2008 23:00 9.6 C 87 % 1014.9 hPa 0.2 l/m 3.4 km/h (1 Bft) O-SO 0.00 h 0 W/m 7.5 C 9.3 C 5.0 km/h (1 Bft)
Min-Datum _ 05.10.08 05.10.08 02.10.08 - 29.09.08 - - - 05.10.08 05.10.08 29.09.08
_ Min-Zeit 08:00 17:07 08:15 - 00:00 - - - 17:17 05:56 00:00
Minimum _ 3.4 C 47 % 1007.9 hPa - 0.0 km/h (0 Bft) - - - 3.2 C 2.2 C 0.0 km/h (0 Bft)
Max-Datum _ 29.09.08 29.09.08 29.09.08 04.10.08 02.10.08 - 29.09.08 04.10.08 29.09.08 29.09.08 02.10.08
_ Max-Zeit 15:43 01:44 00:00 15:06 09:39 - 11:49 12:54 15:42 15:42 09:38
Maximum _ 18.8 C 100 % 1023.9 hPa 1.0 l/m 33.0 km/h
W (5 Bft)
- 0.02 h 863 W/m 12.1 C 18.8 C 43.5 km/h
W (6 Bft)
Durchschnitt _ 9.8 C 84 % 1014.4 hPa #10.8 l/m 4.9 km/h (1 Bft) W #20:58 h 179 W/m 7.0 C 9.6 C 8.4 km/h (2 Bft)
© Kaiko 2008